Time;durP1;ratioP1;P1;durP2;ratioP2;P2;SDS_P1;SDS_P2;PMS_P1;PMS_P2;Temp;Humidity;BMP_temperature;BMP_pressure;BME280_temperature;BME280_humidity;BME280_pressure;Samples;Min_cycle;Max_cycle;Signal;HPM_P1;HPM_P2
2021/10/24 00:02:25;;;;;;;8.50;2.33;;;;;;;-149.78;100.00;50346.28;5059621;28;20025;-70
2021/10/24 00:04:51;;;;;;;8.10;1.73;;;;;;;-149.78;100.00;50338.44;5066368;28;20101;-70
2021/10/24 00:07:17;;;;;;;3.78;1.63;;;;;;;-149.78;100.00;50354.09;5064113;28;20099;-70
2021/10/24 00:09:42;;;;;;;6.38;2.20;;;;;;;-149.78;100.00;50326.72;5071650;28;20119;-70
2021/10/24 00:12:09;;;;;;;5.50;1.95;;;;;;;-149.78;100.00;50309.13;5068459;28;20074;-70
2021/10/24 00:14:35;;;;;;;8.10;2.00;;;;;;;-149.78;100.00;50334.53;5057510;28;20040;-70
2021/10/24 00:17:00;;;;;;;7.53;1.90;;;;;;;-149.78;100.00;50342.38;5065381;28;20041;-70
2021/10/24 00:19:26;;;;;;;3.90;2.08;;;;;;;-149.78;100.00;50309.13;5070689;28;20036;-70
2021/10/24 00:21:52;;;;;;;4.18;2.38;;;;;;;-149.78;100.00;50297.38;5070525;28;20405;-70
2021/10/24 00:24:17;;;;;;;3.53;1.70;;;;;;;-149.78;100.00;50330.63;5053646;28;20037;-70
2021/10/24 00:26:43;;;;;;;9.27;2.17;;;;;;;-149.78;100.00;50346.28;5058022;28;20064;-70
2021/10/24 00:29:09;;;;;;;3.15;1.70;;;;;;;-149.78;100.00;50334.53;5059312;28;20029;-70
2021/10/24 00:31:36;;;;;;;4.72;1.90;;;;;;;-149.78;100.00;50334.53;5036742;28;20036;-70
2021/10/24 00:34:01;;;;;;;4.25;2.50;;;;;;;-149.78;100.00;50342.38;5059200;28;20037;-70
2021/10/24 00:36:27;;;;;;;5.05;1.63;;;;;;;-149.78;100.00;50342.38;5058752;28;20173;-70
2021/10/24 00:38:52;;;;;;;6.57;1.73;;;;;;;-149.78;100.00;50313.03;5063328;28;20037;-70
2021/10/24 00:41:18;;;;;;;7.40;2.30;;;;;;;-149.78;100.00;50342.38;5055893;28;20032;-70
2021/10/24 00:43:44;;;;;;;4.88;1.95;;;;;;;-149.78;100.00;50346.28;5062400;28;20033;-70
2021/10/24 00:46:09;;;;;;;7.90;2.05;;;;;;;-149.78;100.00;50358.00;5045934;28;20462;-70
2021/10/24 00:48:35;;;;;;;7.65;2.75;;;;;;;-149.78;100.00;50334.53;5066666;28;20510;-70
2021/10/24 00:51:01;;;;;;;7.53;2.00;;;;;;;-149.78;100.00;50344.31;5069947;28;20446;-70
2021/10/24 00:53:27;;;;;;;4.45;1.80;;;;;;;-149.78;100.00;50356.06;5057344;28;20450;-70
2021/10/24 00:55:53;;;;;;;7.22;2.10;;;;;;;-149.78;100.00;50336.50;5054267;28;20032;-70
2021/10/24 00:58:19;;;;;;;2.42;1.60;;;;;;;-149.78;100.00;50342.38;5066748;28;20465;-70
2021/10/24 01:00:45;;;;;;;6.70;2.05;;;;;;;-149.78;100.00;50338.44;5063546;28;20037;-70
2021/10/24 01:03:12;;;;;;;6.32;2.10;;;;;;;-149.78;100.00;50322.81;5063652;28;20036;-70
2021/10/24 01:05:39;;;;;;;4.55;1.83;;;;;;;-149.78;100.00;50324.75;5057057;28;20035;-69
2021/10/24 01:08:07;;;;;;;4.82;2.10;;;;;;;-149.78;100.00;50320.84;5054794;28;20127;-70
2021/10/24 01:10:35;;;;;;;4.95;1.95;;;;;;;-149.78;100.00;50350.19;5061236;28;20104;-70
2021/10/24 01:13:00;;;;;;;5.55;1.75;;;;;;;-149.78;100.00;50334.53;5059684;28;20037;-70
2021/10/24 01:15:26;;;;;;;5.75;1.90;;;;;;;-149.78;100.00;50354.09;5062193;28;20087;-70
2021/10/24 01:17:52;;;;;;;6.10;2.13;;;;;;;-149.78;100.00;50350.19;5064071;28;20139;-70
2021/10/24 01:20:23;;;;;;;7.47;2.22;;;;;;;-149.78;100.00;50346.28;5058429;28;20035;-70
2021/10/24 01:22:49;;;;;;;3.85;2.10;;;;;;;-149.78;100.00;50299.34;5059480;28;20024;-69
2021/10/24 01:25:16;;;;;;;7.38;1.90;;;;;;;-149.78;100.00;50334.53;5067944;28;20040;-70
2021/10/24 01:27:42;;;;;;;5.72;1.80;;;;;;;-149.78;100.00;50358.00;5055383;28;20378;-70
2021/10/24 01:30:08;;;;;;;13.55;3.72;;;;;;;-149.78;100.00;50346.28;5061441;28;20033;-70
2021/10/24 01:32:35;;;;;;;9.00;1.70;;;;;;;-149.78;100.00;50318.91;5056977;28;20514;-70
2021/10/24 01:35:01;;;;;;;5.05;1.80;;;;;;;-149.78;100.00;50346.28;5071654;28;20119;-69
2021/10/24 01:37:35;;;;;;;7.97;1.90;;;;;;;-149.78;100.00;50348.22;5055364;28;20132;-69
2021/10/24 01:40:05;;;;;;;5.35;1.50;;;;;;;-149.78;100.00;50354.09;5064029;28;20024;-70
2021/10/24 01:42:32;;;;;;;4.10;2.10;;;;;;;-149.78;100.00;50330.63;5059101;28;20028;-70
2021/10/24 01:44:58;;;;;;;7.07;1.85;;;;;;;-149.78;100.00;50354.09;5054641;28;20098;-70
2021/10/24 01:47:23;;;;;;;5.35;1.80;;;;;;;-149.78;100.00;50350.19;5051760;28;20468;-69
2021/10/24 01:49:49;;;;;;;5.25;1.77;;;;;;;-149.78;100.00;50365.84;5054336;28;20060;-70
2021/10/24 01:52:16;;;;;;;10.00;3.60;;;;;;;-149.78;100.00;50318.91;5058471;28;20059;-70
2021/10/24 01:54:42;;;;;;;6.35;1.77;;;;;;;-149.78;100.00;50350.19;5059976;28;20044;-71
2021/10/24 01:57:09;;;;;;;5.82;1.92;;;;;;;-149.78;100.00;50361.91;5084226;28;20029;-70
2021/10/24 01:59:34;;;;;;;5.40;1.77;;;;;;;-149.78;100.00;50330.63;5049942;28;20039;-70
2021/10/24 02:02:00;;;;;;;4.03;1.70;;;;;;;-149.78;100.00;50393.22;5058775;28;20110;-70
2021/10/24 02:04:25;;;;;;;3.22;1.70;;;;;;;-149.78;100.00;50334.53;5062314;28;20068;-70
2021/10/24 02:06:51;;;;;;;3.28;1.60;;;;;;;-149.78;100.00;50307.16;5067578;28;20036;-70
2021/10/24 02:09:17;;;;;;;4.45;1.88;;;;;;;-149.78;100.00;50324.75;5062676;28;20546;-70
2021/10/24 02:11:42;;;;;;;8.70;2.22;;;;;;;-149.78;100.00;50356.06;5068575;28;20346;-70
2021/10/24 02:14:08;;;;;;;6.10;1.92;;;;;;;-149.78;100.00;50322.81;5063605;28;20059;-70
2021/10/24 02:16:33;;;;;;;5.25;1.77;;;;;;;-149.78;100.00;50322.81;5064627;28;20044;-70
2021/10/24 02:18:59;;;;;;;4.43;1.80;;;;;;;-149.78;100.00;50336.50;5057893;28;20040;-71
2021/10/24 02:21:24;;;;;;;4.70;1.75;;;;;;;-149.78;100.00;50326.72;5061551;28;20021;-70
2021/10/24 02:23:51;;;;;;;5.85;1.55;;;;;;;-149.78;100.00;50340.41;5056857;28;20473;-70
2021/10/24 02:26:16;;;;;;;4.95;1.50;;;;;;;-149.78;100.00;50385.38;5061069;28;20024;-70
2021/10/24 02:28:42;;;;;;;5.88;1.60;;;;;;;-149.78;100.00;50356.06;5065700;28;20060;-71
2021/10/24 02:31:08;;;;;;;4.30;1.40;;;;;;;-149.78;100.00;50361.91;5061725;28;20025;-71
2021/10/24 02:33:34;;;;;;;5.57;1.95;;;;;;;-149.78;100.00;50334.53;5085683;28;20090;-70
2021/10/24 02:35:59;;;;;;;3.90;1.60;;;;;;;-149.78;100.00;50348.22;5068601;28;20395;-71
2021/10/24 02:38:25;;;;;;;5.18;2.17;;;;;;;-149.78;100.00;50338.44;5042840;28;20047;-71
2021/10/24 02:40:50;;;;;;;6.65;1.52;;;;;;;-149.78;100.00;50338.44;5060488;28;20033;-70
2021/10/24 02:43:16;;;;;;;4.60;1.88;;;;;;;-149.78;100.00;50330.63;5061117;28;20033;-71
2021/10/24 02:45:42;;;;;;;3.55;1.30;;;;;;;-149.78;100.00;50334.53;5061091;28;20496;-71
2021/10/24 02:48:08;;;;;;;4.90;1.77;;;;;;;-149.78;100.00;50334.53;5048582;28;20033;-71
2021/10/24 02:50:34;;;;;;;4.00;1.45;;;;;;;-149.78;100.00;50322.81;5065486;28;20391;-70
2021/10/24 02:52:59;;;;;;;3.30;1.60;;;;;;;-149.78;100.00;50330.63;5058208;28;20037;-71
2021/10/24 02:55:25;;;;;;;5.70;1.58;;;;;;;-149.78;100.00;50311.06;5054057;28;20373;-71
2021/10/24 02:57:51;;;;;;;4.43;1.50;;;;;;;-149.78;100.00;50342.38;5062542;28;20392;-70
2021/10/24 03:00:16;;;;;;;5.72;1.80;;;;;;;-149.78;100.00;50334.53;5060377;28;20053;-71
2021/10/24 03:02:44;;;;;;;3.20;1.50;;;;;;;-149.78;100.00;50336.50;5059444;28;20460;-71
2021/10/24 03:05:09;;;;;;;4.63;1.77;;;;;;;-149.78;100.00;50361.91;5061139;28;20529;-70
2021/10/24 03:07:36;;;;;;;2.10;1.40;;;;;;;-149.78;100.00;50330.63;5041173;28;20036;-70
2021/10/24 03:10:02;;;;;;;7.75;2.65;;;;;;;-149.78;100.00;50350.19;5061095;28;20041;-70
2021/10/24 03:12:28;;;;;;;5.13;1.55;;;;;;;-149.78;100.00;50342.38;5073524;28;20499;-71
2021/10/24 03:14:54;;;;;;;5.43;1.63;;;;;;;-149.78;100.00;50338.44;5063402;28;20032;-70
2021/10/24 03:17:19;;;;;;;3.53;1.50;;;;;;;-149.78;100.00;50332.59;5066765;28;20115;-71
2021/10/24 03:19:45;;;;;;;3.05;1.48;;;;;;;-149.78;100.00;50377.56;5067136;28;20473;-70
2021/10/24 03:22:10;;;;;;;6.32;1.50;;;;;;;-149.78;100.00;50326.72;5065906;28;20453;-70
2021/10/24 03:24:36;;;;;;;4.38;1.33;;;;;;;-149.78;100.00;50338.44;5049493;28;20032;-70
2021/10/24 03:27:02;;;;;;;6.10;1.63;;;;;;;-149.78;100.00;50359.97;5071193;28;20032;-70
2021/10/24 03:29:28;;;;;;;3.28;1.60;;;;;;;-149.78;100.00;50340.41;5066525;28;20503;-70
2021/10/24 03:31:54;;;;;;;4.85;1.60;;;;;;;-149.78;100.00;50352.16;5057332;28;20025;-70
2021/10/24 03:34:19;;;;;;;4.53;1.65;;;;;;;-149.78;100.00;50332.59;5059814;28;20029;-70
2021/10/24 03:36:48;;;;;;;4.15;1.77;;;;;;;-149.78;100.00;50342.38;5063823;28;20048;-70
2021/10/24 03:39:14;;;;;;;3.75;1.65;;;;;;;-149.78;100.00;50342.38;5068020;28;20056;-70
2021/10/24 03:41:40;;;;;;;2.38;1.50;;;;;;;-149.78;100.00;50373.66;5063325;28;20424;-70
2021/10/24 03:44:05;;;;;;;3.75;1.90;;;;;;;-149.78;100.00;50330.63;5062992;28;20033;-70
2021/10/24 03:46:31;;;;;;;4.20;1.60;;;;;;;-149.78;100.00;50322.81;5066340;28;20044;-70
2021/10/24 03:48:59;;;;;;;5.63;1.50;;;;;;;-149.78;100.00;50354.09;5061708;28;20063;-70
2021/10/24 03:51:25;;;;;;;3.47;1.50;;;;;;;-149.78;100.00;50332.59;5063767;28;20041;-70
2021/10/24 03:53:51;;;;;;;5.30;1.83;;;;;;;-149.78;100.00;50338.44;5064096;28;20039;-70
2021/10/24 03:56:16;;;;;;;5.90;1.88;;;;;;;-149.78;100.00;50324.75;5063588;28;20052;-70
2021/10/24 03:58:44;;;;;;;5.85;1.77;;;;;;;-149.78;100.00;50350.19;5064863;28;20032;-70
2021/10/24 04:01:10;;;;;;;4.22;1.70;;;;;;;-149.78;100.00;50320.84;5066014;28;20056;-70
2021/10/24 04:03:36;;;;;;;4.32;1.40;;;;;;;-149.78;100.00;50326.72;5056154;28;20050;-70
2021/10/24 04:06:03;;;;;;;5.65;1.58;;;;;;;-149.78;100.00;50326.72;5073182;28;20540;-70
2021/10/24 04:08:29;;;;;;;4.13;1.70;;;;;;;-149.78;100.00;50314.97;5059280;28;20562;-70
2021/10/24 04:10:55;;;;;;;4.85;1.70;;;;;;;-149.78;100.00;50358.00;5066048;28;20032;-70
2021/10/24 04:13:21;;;;;;;3.58;1.50;;;;;;;-149.78;100.00;50338.44;5070314;28;20464;-70
2021/10/24 04:15:47;;;;;;;9.18;1.85;;;;;;;-149.78;100.00;50330.63;5065318;28;20045;-71
2021/10/24 04:18:13;;;;;;;4.28;1.92;;;;;;;-149.78;100.00;50336.50;5069247;28;20119;-71
2021/10/24 04:20:39;;;;;;;6.03;1.77;;;;;;;-149.78;100.00;50307.16;5056822;28;20037;-70
2021/10/24 04:23:05;;;;;;;4.25;1.67;;;;;;;-149.78;100.00;50334.53;5056704;28;20056;-70
2021/10/24 04:25:31;;;;;;;4.53;1.60;;;;;;;-149.78;100.00;50295.44;5054091;28;20037;-70
2021/10/24 04:27:57;;;;;;;3.78;1.70;;;;;;;-149.78;100.00;50326.72;5055876;28;20039;-71
2021/10/24 04:30:23;;;;;;;7.63;1.70;;;;;;;-149.78;100.00;50350.19;5067732;28;20101;-71
2021/10/24 04:32:48;;;;;;;6.85;1.65;;;;;;;-149.78;100.00;50334.53;5062539;28;20033;-71
2021/10/24 04:35:15;;;;;;;6.28;1.80;;;;;;;-149.78;100.00;50330.63;5067989;28;20039;-70
2021/10/24 04:37:41;;;;;;;5.15;1.88;;;;;;;-149.78;100.00;50332.59;5064288;28;20071;-71
2021/10/24 04:40:08;;;;;;;3.78;1.63;;;;;;;-149.78;100.00;50334.53;5056671;28;20060;-71
2021/10/24 04:42:35;;;;;;;6.82;1.98;;;;;;;-149.78;100.00;50328.69;5064800;28;20078;-70
2021/10/24 04:45:01;;;;;;;2.63;1.73;;;;;;;-149.78;100.00;50338.44;5053789;28;20411;-71
2021/10/24 04:47:26;;;;;;;7.07;1.92;;;;;;;-149.78;100.00;50334.53;5059650;28;20119;-70
2021/10/24 04:49:52;;;;;;;3.67;1.65;;;;;;;-149.78;100.00;50303.25;5060994;28;20032;-70
2021/10/24 04:52:18;;;;;;;3.70;1.77;;;;;;;-149.78;100.00;50326.72;5062143;28;20477;-71
2021/10/24 04:54:43;;;;;;;5.28;2.00;;;;;;;-149.78;100.00;50332.59;5055004;28;20415;-72
2021/10/24 04:57:09;;;;;;;3.40;2.03;;;;;;;-149.78;100.00;50309.13;5057003;28;20037;-72
2021/10/24 04:59:34;;;;;;;5.25;1.98;;;;;;;-149.78;100.00;50361.91;5066626;28;20040;-71
2021/10/24 05:02:00;;;;;;;7.35;2.10;;;;;;;-149.78;100.00;50303.25;5056645;28;20028;-70
2021/10/24 05:04:26;;;;;;;5.30;2.00;;;;;;;-149.78;100.00;50334.53;5069453;28;20452;-71
2021/10/24 05:06:52;;;;;;;4.85;2.22;;;;;;;-149.78;100.00;50332.59;5068760;28;20472;-71
2021/10/24 05:09:18;;;;;;;4.40;1.88;;;;;;;-149.78;100.00;50320.84;5069988;28;20188;-70
2021/10/24 05:11:44;;;;;;;4.20;1.85;;;;;;;-149.78;100.00;50322.81;5072305;28;20060;-70
2021/10/24 05:14:09;;;;;;;3.30;1.85;;;;;;;-149.78;100.00;50365.84;5062499;28;20044;-70
2021/10/24 05:16:36;;;;;;;6.78;2.03;;;;;;;-149.78;100.00;50350.19;5059320;28;20036;-71
2021/10/24 05:19:03;;;;;;;5.22;2.33;;;;;;;-149.78;100.00;50326.72;5057266;28;20039;-71
2021/10/24 05:21:30;;;;;;;5.53;1.90;;;;;;;-149.78;100.00;50326.72;5056371;28;20115;-71
2021/10/24 05:23:55;;;;;;;8.55;2.95;;;;;;;-149.78;100.00;50350.19;5060956;28;20047;-70
2021/10/24 05:26:21;;;;;;;7.47;1.90;;;;;;;-149.78;100.00;50342.38;5052859;28;20037;-70
2021/10/24 05:28:47;;;;;;;5.28;2.30;;;;;;;-149.78;100.00;50334.53;5053719;28;20063;-70
2021/10/24 05:31:13;;;;;;;4.18;2.08;;;;;;;-149.78;100.00;50350.19;5053824;28;20108;-71
2021/10/24 05:33:39;;;;;;;6.03;2.17;;;;;;;-149.78;100.00;50330.63;5050470;28;20119;-71
2021/10/24 05:36:05;;;;;;;3.58;2.00;;;;;;;-149.78;100.00;50350.19;5052400;28;20032;-71
2021/10/24 05:38:31;;;;;;;3.58;1.77;;;;;;;-149.78;100.00;50365.84;5066517;28;20017;-70
2021/10/24 05:40:57;;;;;;;3.63;2.00;;;;;;;-149.78;100.00;50346.28;5064225;28;20041;-70
2021/10/24 05:43:23;;;;;;;3.30;1.98;;;;;;;-149.78;100.00;50363.88;5058709;28;20032;-70
2021/10/24 05:45:49;;;;;;;8.27;2.20;;;;;;;-149.78;100.00;50330.63;5060393;28;20039;-70
2021/10/24 05:48:15;;;;;;;5.93;2.30;;;;;;;-149.78;100.00;50359.97;5060601;28;20025;-70
2021/10/24 05:50:42;;;;;;;4.00;1.85;;;;;;;-149.78;100.00;50379.53;5058733;28;20397;-70
2021/10/24 05:53:08;;;;;;;7.45;2.13;;;;;;;-149.78;100.00;50350.19;5054528;28;20175;-70
2021/10/24 05:55:35;;;;;;;4.72;2.17;;;;;;;-149.78;100.00;50350.19;5047858;28;20035;-70
2021/10/24 05:58:02;;;;;;;4.68;1.88;;;;;;;-149.78;100.00;50342.38;5057581;28;20044;-70
2021/10/24 06:00:27;;;;;;;6.15;2.38;;;;;;;-149.78;100.00;50369.75;5061047;28;20036;-70
2021/10/24 06:02:53;;;;;;;5.97;2.13;;;;;;;-149.78;100.00;50313.03;5056769;28;20040;-70
2021/10/24 06:05:19;;;;;;;8.88;2.10;;;;;;;-149.78;100.00;50338.44;5059733;28;20043;-70
2021/10/24 06:07:45;;;;;;;3.20;1.92;;;;;;;-149.78;100.00;50313.03;5062386;28;20064;-70
2021/10/24 06:10:16;;;;;;;5.68;2.38;;;;;;;-149.78;100.00;50365.84;5063338;28;20029;-70
2021/10/24 06:12:44;;;;;;;5.53;2.13;;;;;;;-149.78;100.00;50344.31;5064021;28;20037;-70
2021/10/24 06:15:12;;;;;;;5.65;2.40;;;;;;;-149.78;100.00;50395.16;5058930;28;20051;-71
2021/10/24 06:17:38;;;;;;;3.08;1.80;;;;;;;-149.78;100.00;50322.81;5063250;28;20100;-70
2021/10/24 06:20:06;;;;;;;5.18;2.08;;;;;;;-149.78;100.00;50359.97;5054704;28;20025;-70
2021/10/24 06:22:31;;;;;;;4.95;2.33;;;;;;;-149.78;100.00;50307.16;5056478;28;20262;-70
2021/10/24 06:24:57;;;;;;;5.35;2.25;;;;;;;-149.78;100.00;50346.28;5059575;28;20032;-70
2021/10/24 06:27:23;;;;;;;5.30;2.55;;;;;;;-149.78;100.00;50358.00;5059694;28;20151;-70
2021/10/24 06:29:48;;;;;;;7.18;2.35;;;;;;;-149.78;100.00;50342.38;5042439;28;20029;-70
2021/10/24 06:32:14;;;;;;;3.25;2.15;;;;;;;-149.78;100.00;50354.09;5056982;28;20040;-70
2021/10/24 06:34:40;;;;;;;10.20;2.15;;;;;;;-149.78;100.00;50348.22;5063890;28;20039;-70
2021/10/24 06:37:05;;;;;;;4.85;2.15;;;;;;;-149.78;100.00;50338.44;5056675;28;20059;-70
2021/10/24 06:39:31;;;;;;;6.70;2.30;;;;;;;-149.78;100.00;50358.00;5054776;28;20033;-70
2021/10/24 06:41:57;;;;;;;3.95;2.20;;;;;;;-149.78;100.00;50346.28;5060834;28;20559;-70
2021/10/24 06:44:22;;;;;;;8.90;2.40;;;;;;;-149.78;100.00;50354.09;5061194;28;20033;-70
2021/10/24 06:46:48;;;;;;;8.98;2.35;;;;;;;-149.78;100.00;50354.09;5060267;28;20024;-70
2021/10/24 06:49:13;;;;;;;5.75;2.53;;;;;;;-149.78;100.00;50354.09;5062210;28;20037;-71
2021/10/24 06:51:39;;;;;;;6.40;2.63;;;;;;;-149.78;100.00;50334.53;5065698;28;20064;-70
2021/10/24 06:54:05;;;;;;;10.02;2.15;;;;;;;-149.78;100.00;50381.47;5050471;28;20033;-71
2021/10/24 06:56:30;;;;;;;4.45;1.98;;;;;;;-149.78;100.00;50383.44;5060073;28;20036;-71
2021/10/24 06:58:56;;;;;;;4.85;2.20;;;;;;;-149.78;100.00;50338.44;5029368;28;20036;-70
2021/10/24 07:01:22;;;;;;;8.60;2.38;;;;;;;-149.78;100.00;50311.06;5060438;28;20044;-70
2021/10/24 07:03:48;;;;;;;5.07;2.53;;;;;;;-149.78;100.00;50350.19;5064076;28;20119;-70
2021/10/24 07:06:13;;;;;;;11.40;2.20;;;;;;;-149.78;100.00;50340.41;5048330;28;20163;-70
2021/10/24 07:08:39;;;;;;;8.88;3.00;;;;;;;-149.78;100.00;50338.44;5060636;28;21287;-71
2021/10/24 07:11:04;;;;;;;4.57;2.20;;;;;;;-149.78;100.00;50361.91;5064008;28;20025;-70
2021/10/24 07:13:33;;;;;;;6.32;2.30;;;;;;;-149.78;100.00;50350.19;5059070;28;20421;-70
2021/10/24 07:16:00;;;;;;;4.32;2.28;;;;;;;-149.78;100.00;50322.81;5065206;28;20063;-68
2021/10/24 07:18:26;;;;;;;8.20;3.42;;;;;;;-149.78;100.00;50330.63;5059649;28;20078;-69
2021/10/24 07:20:53;;;;;;;11.73;2.60;;;;;;;-149.78;100.00;50293.47;5057138;28;20036;-69
2021/10/24 07:23:20;;;;;;;6.53;2.30;;;;;;;-149.78;100.00;50350.19;5062758;28;20029;-70
2021/10/24 07:25:46;;;;;;;10.43;3.38;;;;;;;-149.78;100.00;50361.91;5062696;28;20086;-71
2021/10/24 07:28:11;;;;;;;12.23;2.47;;;;;;;-149.78;100.00;50361.91;5063009;28;20499;-71
2021/10/24 07:30:37;;;;;;;4.25;2.25;;;;;;;-149.78;100.00;50322.81;5061436;28;20035;-70
2021/10/24 07:33:03;;;;;;;8.27;2.22;;;;;;;-149.78;100.00;50356.06;5060363;28;20039;-71
2021/10/24 07:35:29;;;;;;;5.65;2.50;;;;;;;-149.78;100.00;50336.50;5065648;28;20028;-69
2021/10/24 07:37:55;;;;;;;6.40;2.33;;;;;;;-149.78;100.00;50334.53;5067941;28;20475;-69
2021/10/24 07:40:21;;;;;;;4.78;2.28;;;;;;;-149.78;100.00;50359.97;5063999;28;20051;-69
2021/10/24 07:42:47;;;;;;;8.40;3.03;;;;;;;-149.78;100.00;50385.38;5070945;28;20032;-70
2021/10/24 07:45:13;;;;;;;4.13;2.55;;;;;;;-149.78;100.00;50322.81;5070995;28;20044;-71
2021/10/24 07:47:40;;;;;;;7.93;2.40;;;;;;;-149.78;100.00;50326.72;5062797;28;20511;-70
2021/10/24 07:50:09;;;;;;;8.85;2.13;;;;;;;-149.78;100.00;50342.38;5066000;28;20799;-72
2021/10/24 07:52:37;;;;;;;7.25;2.80;;;;;;;-149.78;100.00;50346.28;5051214;28;20474;-71
2021/10/24 07:55:04;;;;;;;8.73;3.35;;;;;;;-149.78;100.00;50340.41;5064434;28;20226;-70
2021/10/24 07:57:29;;;;;;;4.60;2.60;;;;;;;-149.78;100.00;50350.19;5057383;28;20029;-71
2021/10/24 07:59:55;;;;;;;3.40;2.08;;;;;;;-149.78;100.00;50303.25;5065789;28;20372;-70
2021/10/24 08:02:21;;;;;;;4.45;2.47;;;;;;;-149.78;100.00;50356.06;5068326;28;20376;-69
2021/10/24 08:04:48;;;;;;;10.70;2.65;;;;;;;-149.78;100.00;50314.97;5084896;28;20360;-69
2021/10/24 08:07:14;;;;;;;6.47;2.75;;;;;;;-149.78;100.00;50334.53;5063374;28;20165;-69
2021/10/24 08:09:40;;;;;;;10.13;2.42;;;;;;;-149.78;100.00;50330.63;5064776;28;20036;-69
2021/10/24 08:12:07;;;;;;;7.60;2.72;;;;;;;-149.78;100.00;50371.69;5066297;28;20028;-70
2021/10/24 08:14:34;;;;;;;4.40;2.30;;;;;;;-149.78;100.00;50326.72;5068150;28;20035;-70
2021/10/24 08:17:00;;;;;;;9.35;2.70;;;;;;;-149.78;100.00;50354.09;5065258;28;20033;-67
2021/10/24 08:19:27;;;;;;;3.50;2.25;;;;;;;-149.78;100.00;50350.19;5065985;28;20039;-68
2021/10/24 08:21:52;;;;;;;4.45;2.45;;;;;;;-149.78;100.00;50361.91;5060955;28;20052;-68
2021/10/24 08:24:19;;;;;;;6.35;2.63;;;;;;;-149.78;100.00;50330.63;5071856;28;20515;-68
2021/10/24 08:26:45;;;;;;;6.80;2.55;;;;;;;-149.78;100.00;50346.28;5064386;28;20054;-68
2021/10/24 08:29:10;;;;;;;8.55;2.65;;;;;;;-149.78;100.00;50342.38;5057683;28;20032;-68
2021/10/24 08:31:38;;;;;;;6.32;2.60;;;;;;;-149.78;100.00;50314.97;5061805;28;20028;-70
2021/10/24 08:34:04;;;;;;;5.00;2.60;;;;;;;-149.78;100.00;50330.63;5065382;28;20020;-68
2021/10/24 08:36:30;;;;;;;4.70;2.80;;;;;;;-149.78;100.00;50365.84;5047200;28;20044;-69
2021/10/24 08:38:57;;;;;;;7.38;2.45;;;;;;;-149.78;100.00;50348.22;5066769;28;20021;-70
2021/10/24 08:41:28;;;;;;;10.10;2.97;;;;;;;-149.78;100.00;50307.16;5062293;28;20093;-68
2021/10/24 08:44:00;;;;;;;8.75;2.90;;;;;;;-149.78;100.00;50338.44;5066419;28;20035;-69
2021/10/24 08:46:26;;;;;;;9.30;2.75;;;;;;;-149.78;100.00;50314.97;5062189;28;20035;-69
2021/10/24 08:48:52;;;;;;;4.28;2.72;;;;;;;-149.78;100.00;50361.91;5059610;28;20036;-69
2021/10/24 08:51:18;;;;;;;6.15;2.70;;;;;;;-149.78;100.00;50346.28;5054902;28;20377;-69
2021/10/24 08:53:49;;;;;;;8.02;3.28;;;;;;;-149.78;100.00;50338.44;5069302;28;20045;-70
2021/10/24 08:56:21;;;;;;;10.27;2.78;;;;;;;-149.78;100.00;50358.00;5062840;28;20035;-69
2021/10/24 08:58:47;;;;;;;6.70;3.35;;;;;;;-149.78;100.00;50334.53;5063005;28;20110;-69
2021/10/24 09:01:15;;;;;;;6.28;2.67;;;;;;;-149.78;100.00;50358.00;5059351;28;20036;-69
2021/10/24 09:04:01;;;;;;;6.28;3.15;;;;;;;-149.78;100.00;50338.44;5058217;28;20029;-69
2021/10/24 09:06:53;;;;;;;7.38;3.15;;;;;;;-149.78;100.00;50350.19;5066621;28;20048;-69
2021/10/24 09:09:25;;;;;;;9.00;3.40;;;;;;;-149.78;100.00;50342.38;5062627;28;20537;-69
2021/10/24 09:12:00;;;;;;;5.63;3.10;;;;;;;-149.78;100.00;50336.50;5057692;28;20167;-69
2021/10/24 09:14:36;;;;;;;6.10;2.85;;;;;;;-149.78;100.00;50344.31;5062154;28;20025;-70
2021/10/24 09:17:06;;;;;;;4.22;2.58;;;;;;;-149.78;100.00;50338.44;5063335;28;20388;-69
2021/10/24 09:19:40;;;;;;;7.63;2.60;;;;;;;-149.78;100.00;50311.06;5061100;28;20040;-69
2021/10/24 09:22:16;;;;;;;5.15;2.97;;;;;;;-149.78;100.00;50369.75;5058996;28;20471;-69
2021/10/24 09:25:01;;;;;;;6.80;2.90;;;;;;;-149.78;100.00;50330.63;5055948;28;20082;-69
2021/10/24 09:27:30;;;;;;;6.40;2.60;;;;;;;-149.78;100.00;50322.81;5064149;28;20026;-69
2021/10/24 09:30:08;;;;;;;6.90;2.67;;;;;;;-149.78;100.00;50324.75;5062802;28;20039;-68
2021/10/24 09:32:49;;;;;;;8.70;2.75;;;;;;;-149.78;100.00;50314.97;5067847;28;20016;-69
2021/10/24 09:35:16;;;;;;;5.63;2.90;;;;;;;-149.78;100.00;50328.69;5064262;28;20031;-69
2021/10/24 09:37:45;;;;;;;6.00;3.03;;;;;;;-149.78;100.00;50307.16;5060740;28;20440;-70
2021/10/24 09:40:10;;;;;;;7.63;3.03;;;;;;;-149.78;100.00;50354.09;5063230;28;20033;-68
2021/10/24 09:42:38;;;;;;;7.10;2.88;;;;;;;-149.78;100.00;50330.63;5052503;28;20044;-68
2021/10/24 09:45:07;;;;;;;6.55;2.80;;;;;;;-149.78;100.00;50336.50;5062527;28;20037;-68
2021/10/24 09:47:51;;;;;;;8.27;2.70;;;;;;;-149.78;100.00;50326.72;5054015;28;20048;-68
2021/10/24 09:50:36;;;;;;;6.10;3.03;;;;;;;-149.78;100.00;50301.28;5059034;28;20045;-68
2021/10/24 09:53:08;;;;;;;9.43;3.42;;;;;;;-149.78;100.00;50358.00;5053596;28;20116;-69
2021/10/24 09:55:34;;;;;;;8.93;3.22;;;;;;;-149.78;100.00;50330.63;5058857;28;20032;-68
2021/10/24 09:58:02;;;;;;;8.57;3.25;;;;;;;-149.78;100.00;50295.44;5063845;28;20039;-69
2021/10/24 10:00:29;;;;;;;7.57;3.42;;;;;;;-149.78;100.00;50334.53;5060428;28;20430;-69
2021/10/24 10:02:54;;;;;;;7.43;3.22;;;;;;;-149.78;100.00;50311.06;5060772;28;20025;-68
2021/10/24 10:05:22;;;;;;;8.00;2.83;;;;;;;-149.78;100.00;50307.16;5054008;28;20413;-68
2021/10/24 10:07:48;;;;;;;18.15;3.63;;;;;;;-149.78;100.00;50371.69;5068075;28;20028;-68
2021/10/24 10:10:14;;;;;;;8.95;3.08;;;;;;;-149.78;100.00;50342.38;5055950;28;20120;-69
2021/10/24 10:12:45;;;;;;;7.15;3.17;;;;;;;-149.78;100.00;50334.53;5052647;28;20364;-69
2021/10/24 10:15:12;;;;;;;8.75;3.72;;;;;;;-149.78;100.00;50287.59;5053613;28;20117;-69
2021/10/24 10:17:38;;;;;;;10.85;3.13;;;;;;;-149.78;100.00;50326.72;5067847;28;20047;-70
2021/10/24 10:20:29;;;;;;;8.57;3.20;;;;;;;-149.78;100.00;50307.16;5072156;28;20388;-70
2021/10/24 10:23:07;;;;;;;6.07;3.22;;;;;;;-149.78;100.00;50299.34;5059200;28;20024;-69
2021/10/24 10:25:37;;;;;;;7.70;3.28;;;;;;;-149.78;100.00;50314.97;5062486;28;20036;-69
2021/10/24 10:28:05;;;;;;;10.32;3.78;;;;;;;-149.78;100.00;50326.72;5067133;28;20035;-69
2021/10/24 10:30:49;;;;;;;12.02;3.15;;;;;;;-149.78;100.00;50295.44;5061548;28;20033;-70
2021/10/24 10:33:35;;;;;;;7.93;3.67;;;;;;;-149.78;100.00;50291.50;5060963;28;20488;-69
2021/10/24 10:36:06;;;;;;;7.40;3.00;;;;;;;-149.78;100.00;50338.44;5059516;28;20384;-69
2021/10/24 10:38:43;;;;;;;8.35;3.55;;;;;;;-149.78;100.00;50307.16;5060289;28;20037;-70
2021/10/24 10:41:14;;;;;;;8.32;3.50;;;;;;;-149.78;100.00;50291.50;5066621;28;20033;-68
2021/10/24 10:44:01;;;;;;;8.75;2.90;;;;;;;-149.78;100.00;50326.72;5073119;28;20033;-70
2021/10/24 10:46:30;;;;;;;7.18;3.20;;;;;;;-149.78;100.00;50291.50;5062521;28;20028;-69
2021/10/24 10:49:21;;;;;;;9.95;3.10;;;;;;;-149.78;100.00;50311.06;5061741;28;20097;-69
2021/10/24 10:51:47;;;;;;;13.45;3.30;;;;;;;-149.78;100.00;50303.25;5069478;28;20430;-69
2021/10/24 10:54:13;;;;;;;8.15;3.47;;;;;;;-149.78;100.00;50326.72;5061050;28;20037;-67
2021/10/24 10:56:49;;;;;;;8.85;3.40;;;;;;;-149.78;100.00;50328.69;5061610;28;20028;-69
2021/10/24 10:59:28;;;;;;;8.00;3.00;;;;;;;-149.78;100.00;50330.63;5070077;28;20024;-69
2021/10/24 11:01:54;;;;;;;11.98;3.13;;;;;;;-149.78;100.00;50334.53;5054967;28;20025;-70
2021/10/24 11:04:21;;;;;;;7.32;2.70;;;;;;;-149.78;100.00;50307.16;5072282;28;20123;-67
2021/10/24 11:06:54;;;;;;;7.50;2.83;;;;;;;-149.78;100.00;50338.44;5061771;28;20033;-69
2021/10/24 11:09:48;;;;;;;8.32;3.47;;;;;;;-149.78;100.00;50330.63;5063863;28;20499;-69
2021/10/24 11:12:38;;;;;;;9.00;3.50;;;;;;;-149.78;100.00;50346.28;5058804;28;20029;-68